createdAt,value
2018-04-22T00:01:38.197Z,11.46
2018-04-22T00:04:05.790Z,11.30
2018-04-22T00:06:33.354Z,11.27
2018-04-22T00:09:00.923Z,11.22
2018-04-22T00:11:28.875Z,11.27
2018-04-22T00:13:56.441Z,11.27
2018-04-22T00:16:24.006Z,11.24
2018-04-22T00:18:51.771Z,11.29
2018-04-22T00:21:19.319Z,11.21
2018-04-22T00:23:46.876Z,11.20
2018-04-22T00:26:14.435Z,10.96
2018-04-22T00:28:42.505Z,11.09
2018-04-22T00:31:10.049Z,11.06
2018-04-22T00:33:37.602Z,10.95
2018-04-22T00:36:05.201Z,10.94
2018-04-22T00:38:32.875Z,10.95
2018-04-22T00:41:00.443Z,10.91
2018-04-22T00:43:28.039Z,10.92
2018-04-22T00:45:55.793Z,10.82
2018-04-22T00:48:23.406Z,10.93
2018-04-22T00:50:51.026Z,10.83
2018-04-22T00:53:18.583Z,10.66
2018-04-22T00:55:46.135Z,10.74
2018-04-22T00:58:13.699Z,10.71
2018-04-22T01:00:41.252Z,10.68
2018-04-22T01:03:08.908Z,10.56
2018-04-22T01:05:36.690Z,10.47
2018-04-22T01:08:04.291Z,10.55
2018-04-22T01:10:31.849Z,10.49
2018-04-22T01:12:59.409Z,10.54
2018-04-22T01:15:27.044Z,10.22
2018-04-22T01:17:54.726Z,10.17
2018-04-22T01:20:22.307Z,10.45
2018-04-22T01:22:49.846Z,10.15
2018-04-22T01:25:17.405Z,10.39
2018-04-22T01:27:45.052Z,10.33
2018-04-22T01:30:12.595Z,10.21
2018-04-22T01:32:40.292Z,10.07
2018-04-22T01:35:07.849Z,10.17
2018-04-22T01:37:35.413Z,10.12
2018-04-22T01:40:03.045Z,10.00
2018-04-22T01:42:31.567Z,10.20
2018-04-22T01:44:59.123Z,10.05
2018-04-22T01:47:26.745Z,9.94
2018-04-22T01:49:54.361Z,10.00
2018-04-22T01:52:21.902Z,9.93
2018-04-22T01:54:49.471Z,9.88
2018-04-22T01:57:17.021Z,9.91
2018-04-22T01:59:44.600Z,10.11
2018-04-22T02:02:12.200Z,10.18
2018-04-22T02:04:39.783Z,10.19
2018-04-22T02:07:07.344Z,10.17
2018-04-22T02:09:35.009Z,10.14
2018-04-22T02:12:02.617Z,10.18
2018-04-22T02:14:30.381Z,10.30
2018-04-22T02:16:58.056Z,10.11
2018-04-22T02:19:25.603Z,9.97
2018-04-22T02:21:53.150Z,10.09
2018-04-22T02:24:20.902Z,10.23
2018-04-22T02:26:48.442Z,10.30
2018-04-22T02:29:15.994Z,10.23
2018-04-22T02:31:43.744Z,10.30
2018-04-22T02:34:11.287Z,10.24
2018-04-22T02:36:38.858Z,10.12
2018-04-22T02:39:06.413Z,9.97
2018-04-22T02:41:34.605Z,10.02
2018-04-22T02:44:02.174Z,10.09
2018-04-22T02:46:29.954Z,10.04
2018-04-22T02:48:57.626Z,10.01
2018-04-22T02:51:25.197Z,9.90
2018-04-22T02:53:52.804Z,9.93
2018-04-22T02:56:20.347Z,10.02
2018-04-22T02:58:48.123Z,9.96
2018-04-22T03:01:15.697Z,9.99
2018-04-22T03:03:43.254Z,9.92
2018-04-22T03:06:10.860Z,9.98
2018-04-22T03:08:38.412Z,9.94
2018-04-22T03:11:05.956Z,9.95
2018-04-22T03:13:33.533Z,9.97
2018-04-22T03:16:01.098Z,9.75
2018-04-22T03:18:28.648Z,9.92
2018-04-22T03:20:56.347Z,9.94
2018-04-22T03:23:23.890Z,9.94
2018-04-22T03:25:51.431Z,9.93
2018-04-22T03:28:19.055Z,9.69
2018-04-22T03:30:46.699Z,9.76
2018-04-22T03:33:14.426Z,9.86
2018-04-22T03:35:41.971Z,9.84
2018-04-22T03:38:09.581Z,9.63
2018-04-22T03:40:37.213Z,9.79
2018-04-22T03:43:04.809Z,9.73
2018-04-22T03:45:32.365Z,9.74
2018-04-22T03:48:00.064Z,9.66
2018-04-22T03:50:27.599Z,9.45
2018-04-22T03:52:55.159Z,9.67
2018-04-22T03:55:22.724Z,9.56
2018-04-22T03:57:50.291Z,9.38
2018-04-22T04:00:18.302Z,9.56
2018-04-22T04:02:45.845Z,9.31
2018-04-22T04:05:13.451Z,9.57
2018-04-22T04:07:41.020Z,9.53
2018-04-22T04:10:08.679Z,9.42
2018-04-22T04:12:36.243Z,9.50
2018-04-22T04:15:03.898Z,9.55
2018-04-22T04:17:31.456Z,9.63
2018-04-22T04:20:10.820Z,9.48
2018-04-22T04:22:45.281Z,9.56
2018-04-22T04:28:13.706Z,9.69
2018-04-22T04:30:41.276Z,9.68
2018-04-22T04:33:08.920Z,9.75
2018-04-22T04:35:36.480Z,9.63
2018-04-22T04:38:04.019Z,9.65
2018-04-22T04:40:31.586Z,9.95
2018-04-22T04:42:59.126Z,9.99
2018-04-22T04:45:26.702Z,9.98
2018-04-22T04:47:54.260Z,9.87
2018-04-22T04:50:21.840Z,10.01
2018-04-22T04:52:49.409Z,10.00
2018-04-22T04:55:16.973Z,10.12
2018-04-22T04:57:44.785Z,10.15
2018-04-22T05:00:12.435Z,9.88
2018-04-22T05:02:40.243Z,10.11
2018-04-22T05:05:07.797Z,10.20
2018-04-22T05:07:35.429Z,10.45
2018-04-22T05:10:03.039Z,10.41
2018-04-22T05:12:30.762Z,10.14
2018-04-22T05:14:58.371Z,10.27
2018-04-22T05:17:25.926Z,10.29
2018-04-22T05:19:53.509Z,10.36
2018-04-22T05:22:21.065Z,10.62
2018-04-22T05:24:48.710Z,10.37
2018-04-22T05:27:16.259Z,10.49
2018-04-22T05:29:43.826Z,10.69
2018-04-22T05:32:11.436Z,10.74
2018-04-22T05:34:39.048Z,10.84
2018-04-22T05:37:06.641Z,10.57
2018-04-22T05:39:34.206Z,10.82
2018-04-22T05:42:01.879Z,10.56
2018-04-22T05:44:29.413Z,10.89
2018-04-22T05:46:56.963Z,10.66
2018-04-22T05:49:24.558Z,10.90
2018-04-22T05:51:52.496Z,10.79
2018-04-22T05:54:20.063Z,10.71
2018-04-22T05:56:47.873Z,11.14
2018-04-22T05:59:15.603Z,11.17
2018-04-22T06:01:43.151Z,11.38
2018-04-22T06:04:10.698Z,11.61
2018-04-22T06:06:38.611Z,11.06
2018-04-22T06:09:06.188Z,11.43
2018-04-22T06:11:33.749Z,11.58
2018-04-22T06:14:01.330Z,11.49
2018-04-22T06:16:28.909Z,11.76
2018-04-22T06:18:56.749Z,12.15
2018-04-22T06:21:24.453Z,12.15
2018-04-22T06:23:52.182Z,12.51
2018-04-22T06:26:19.748Z,12.29
2018-04-22T06:28:47.485Z,12.35
2018-04-22T06:31:15.041Z,12.40
2018-04-22T06:33:42.587Z,12.43
2018-04-22T06:36:10.369Z,12.91
2018-04-22T06:38:38.003Z,12.52
2018-04-22T06:41:05.595Z,12.60
2018-04-22T06:43:33.362Z,12.76
2018-04-22T06:46:00.961Z,12.80
2018-04-22T06:48:28.502Z,12.80
2018-04-22T06:50:56.101Z,12.99
2018-04-22T06:53:23.704Z,13.00
2018-04-22T06:55:51.273Z,13.25
2018-04-22T06:58:18.948Z,13.13
2018-04-22T07:00:46.820Z,13.27
2018-04-22T07:03:14.599Z,13.47
2018-04-22T07:05:42.277Z,13.68
2018-04-22T07:08:09.846Z,13.65
2018-04-22T07:10:37.428Z,14.00
2018-04-22T07:13:05.198Z,14.06
2018-04-22T07:15:32.791Z,13.93
2018-04-22T07:18:00.377Z,14.02
2018-04-22T07:20:27.928Z,14.06
2018-04-22T07:22:55.521Z,14.27
2018-04-22T07:25:23.106Z,14.52
2018-04-22T07:27:50.689Z,14.85
2018-04-22T07:30:18.255Z,14.71
2018-04-22T07:32:45.822Z,14.49
2018-04-22T07:35:13.563Z,14.88
2018-04-22T07:37:41.107Z,14.97
2018-04-22T07:40:08.664Z,15.20
2018-04-22T07:42:36.667Z,15.07
2018-04-22T07:45:04.189Z,15.54
2018-04-22T07:47:31.940Z,15.55
2018-04-22T07:49:59.649Z,15.65
2018-04-22T07:52:27.203Z,15.92
2018-04-22T07:54:54.759Z,15.71
2018-04-22T07:57:22.337Z,16.25
2018-04-22T07:59:49.913Z,16.13
2018-04-22T08:02:17.793Z,16.42
2018-04-22T08:04:45.354Z,16.40
2018-04-22T08:07:12.912Z,16.45
2018-04-22T08:09:40.678Z,16.45
2018-04-22T08:12:08.493Z,16.77
2018-04-22T08:14:36.196Z,16.65
2018-04-22T08:17:03.759Z,16.95
2018-04-22T08:19:31.311Z,16.86
2018-04-22T08:21:59.107Z,16.87
2018-04-22T08:24:26.708Z,17.21
2018-04-22T08:26:54.763Z,17.54
2018-04-22T08:29:22.303Z,17.46
2018-04-22T08:31:49.860Z,17.58
2018-04-22T08:34:17.814Z,18.01
2018-04-22T08:36:45.556Z,17.65
2018-04-22T08:39:13.419Z,17.94
2018-04-22T08:41:41.013Z,17.89
2018-04-22T08:44:09.028Z,17.89
2018-04-22T08:46:36.731Z,18.36
2018-04-22T08:49:04.301Z,18.44
2018-04-22T08:51:32.226Z,18.65
2018-04-22T08:53:59.905Z,18.85
2018-04-22T08:56:27.484Z,18.94
2018-04-22T08:58:55.071Z,19.18
2018-04-22T09:01:22.631Z,19.14
2018-04-22T09:03:50.220Z,19.13
2018-04-22T09:06:17.788Z,19.32
2018-04-22T09:08:45.372Z,19.52
2018-04-22T09:11:12.953Z,19.52
2018-04-22T09:13:40.590Z,19.63
2018-04-22T09:16:08.161Z,19.67
2018-04-22T09:18:35.753Z,19.86
2018-04-22T09:21:03.350Z,19.94
2018-04-22T09:23:31.298Z,19.87
2018-04-22T09:25:58.907Z,20.03
2018-04-22T09:28:26.456Z,20.20
2018-04-22T09:30:54.044Z,20.21
2018-04-22T09:33:22.118Z,19.78
2018-04-22T09:35:49.662Z,20.03
2018-04-22T09:38:17.211Z,19.87
2018-04-22T09:40:44.880Z,20.01
2018-04-22T09:43:12.696Z,20.49
2018-04-22T09:45:40.271Z,20.34
2018-04-22T09:48:07.827Z,20.54
2018-04-22T09:50:35.756Z,20.38
2018-04-22T09:53:03.325Z,20.84
2018-04-22T09:55:30.884Z,20.55
2018-04-22T09:57:58.477Z,20.38
2018-04-22T10:00:31.620Z,20.48
2018-04-22T10:02:59.657Z,20.80
2018-04-22T10:05:32.814Z,20.75
2018-04-22T10:08:00.921Z,20.66
2018-04-22T10:10:28.706Z,20.93
2018-04-22T10:12:56.265Z,21.00
2018-04-22T10:15:24.055Z,21.40
2018-04-22T10:17:51.622Z,21.56
2018-04-22T10:20:19.304Z,21.75
2018-04-22T10:22:46.860Z,21.73
2018-04-22T10:25:14.684Z,21.47
2018-04-22T10:27:42.298Z,21.77
2018-04-22T10:30:10.109Z,21.57
2018-04-22T10:32:37.691Z,21.94
2018-04-22T10:35:05.331Z,21.96
2018-04-22T10:37:33.134Z,22.13
2018-04-22T10:40:00.699Z,22.32
2018-04-22T10:42:28.278Z,22.34
2018-04-22T10:44:55.962Z,22.64
2018-04-22T10:47:23.658Z,22.45
2018-04-22T10:49:51.212Z,22.36
2018-04-22T10:52:18.784Z,22.67
2018-04-22T10:54:46.392Z,23.11
2018-04-22T10:57:13.993Z,23.22
2018-04-22T10:59:42.040Z,23.43
2018-04-22T11:02:10.201Z,22.96
2018-04-22T11:04:37.992Z,22.87
2018-04-22T11:07:05.775Z,23.03
2018-04-22T11:09:33.332Z,23.05
2018-04-22T11:12:01.106Z,22.77
2018-04-22T11:14:28.691Z,22.88
2018-04-22T11:16:56.458Z,23.07
2018-04-22T11:19:24.037Z,23.00
2018-04-22T11:21:51.647Z,23.10
2018-04-22T11:24:19.204Z,23.34
2018-04-22T11:26:46.758Z,23.59
2018-04-22T11:29:14.423Z,23.75
2018-04-22T11:31:42.339Z,24.12
2018-04-22T11:34:09.976Z,23.57
2018-04-22T11:36:37.561Z,23.32
2018-04-22T11:39:06.086Z,23.85
2018-04-22T11:41:33.931Z,24.19
2018-04-22T11:44:01.661Z,23.91
2018-04-22T11:46:29.245Z,24.03
2018-04-22T11:48:56.994Z,24.09
2018-04-22T11:51:24.562Z,24.21
2018-04-22T11:53:52.144Z,24.35
2018-04-22T11:56:19.773Z,24.48
2018-04-22T11:58:47.408Z,24.46
2018-04-22T12:01:14.954Z,24.23
2018-04-22T12:03:42.499Z,24.49
2018-04-22T12:06:10.612Z,24.47
2018-04-22T12:08:38.262Z,24.73
2018-04-22T12:11:05.807Z,24.99
2018-04-22T12:13:33.556Z,25.00
2018-04-22T12:16:01.193Z,24.88
2018-04-22T12:18:28.745Z,24.94
2018-04-22T12:20:56.536Z,25.00
2018-04-22T12:23:24.316Z,25.27
2018-04-22T12:25:51.922Z,24.93
2018-04-22T12:28:19.488Z,25.26
2018-04-22T12:30:47.065Z,25.45
2018-04-22T12:33:14.813Z,25.49
2018-04-22T12:35:42.400Z,25.46
2018-04-22T12:38:09.976Z,25.32
2018-04-22T12:40:37.571Z,25.29
2018-04-22T12:43:05.152Z,24.60
2018-04-22T12:45:32.716Z,24.96
2018-04-22T12:48:00.313Z,25.20
2018-04-22T12:50:27.879Z,25.60
2018-04-22T12:52:55.458Z,25.40
2018-04-22T12:55:23.307Z,25.34
2018-04-22T12:57:50.928Z,25.44
2018-04-22T13:00:18.477Z,25.22
2018-04-22T13:02:46.307Z,25.39
2018-04-22T13:05:14.085Z,25.62
2018-04-22T13:07:41.705Z,25.84
2018-04-22T13:10:09.288Z,25.84
2018-04-22T13:12:36.844Z,26.08
2018-04-22T13:15:04.434Z,25.56
2018-04-22T13:17:32.021Z,25.67
2018-04-22T13:19:59.830Z,25.79
2018-04-22T13:22:27.424Z,25.97
2018-04-22T13:24:55.181Z,26.14
2018-04-22T13:27:22.962Z,25.94
2018-04-22T13:29:50.527Z,25.66
2018-04-22T13:32:18.112Z,25.65
2018-04-22T13:34:45.694Z,25.73
2018-04-22T13:37:13.424Z,25.87
2018-04-22T13:39:41.235Z,26.16
2018-04-22T13:42:08.806Z,25.93
2018-04-22T13:44:36.550Z,25.88
2018-04-22T13:47:04.110Z,25.41
2018-04-22T13:49:31.699Z,25.91
2018-04-22T13:51:59.255Z,26.08
2018-04-22T13:54:27.126Z,26.25
2018-04-22T13:56:54.979Z,26.57
2018-04-22T13:59:22.704Z,26.59
2018-04-22T14:01:50.447Z,26.53
2018-04-22T14:04:18.000Z,26.47
2018-04-22T14:06:47.448Z,26.47
2018-04-22T14:09:15.287Z,26.42
2018-04-22T14:11:42.836Z,26.75
2018-04-22T14:14:10.741Z,26.77
2018-04-22T14:16:38.424Z,26.37
2018-04-22T14:19:05.984Z,26.65
2018-04-22T14:21:33.567Z,26.73
2018-04-22T14:24:01.145Z,26.85
2018-04-22T14:26:28.728Z,27.00
2018-04-22T14:28:56.300Z,26.88
2018-04-22T14:31:23.860Z,26.52
2018-04-22T14:33:51.635Z,26.21
2018-04-22T14:36:19.412Z,26.56
2018-04-22T14:38:47.656Z,26.59
2018-04-22T14:41:15.229Z,26.58
2018-04-22T14:43:54.972Z,26.80
2018-04-22T14:46:22.714Z,26.90
2018-04-22T14:49:02.302Z,26.77
2018-04-22T14:51:29.885Z,26.90
2018-04-22T14:53:57.444Z,27.21
2018-04-22T14:56:26.077Z,27.24
2018-04-22T14:58:53.892Z,27.57
2018-04-22T15:01:21.454Z,27.40
2018-04-22T15:03:49.034Z,26.90
2018-04-22T15:06:16.766Z,26.87
2018-04-22T15:08:44.720Z,27.12
2018-04-22T15:11:12.285Z,27.06
2018-04-22T15:13:40.048Z,27.09
2018-04-22T15:16:07.649Z,26.93
2018-04-22T15:18:35.226Z,26.89
2018-04-22T15:21:02.974Z,26.79
2018-04-22T15:23:30.547Z,26.85
2018-04-22T15:25:58.326Z,26.68
2018-04-22T15:28:25.993Z,26.81
2018-04-22T15:30:53.547Z,26.93
2018-04-22T15:33:21.174Z,27.00
2018-04-22T15:35:48.903Z,26.81
2018-04-22T15:38:16.442Z,26.90
2018-04-22T15:40:44.027Z,26.83
2018-04-22T15:43:11.854Z,26.75
2018-04-22T15:45:39.426Z,26.93
2018-04-22T15:48:07.120Z,26.96
2018-04-22T15:50:34.706Z,26.74
2018-04-22T15:53:02.273Z,26.99
2018-04-22T15:55:29.846Z,26.64
2018-04-22T15:57:57.421Z,26.51
2018-04-22T16:00:25.140Z,26.33
2018-04-22T16:02:52.713Z,26.17
2018-04-22T16:05:20.306Z,26.22
2018-04-22T16:07:47.855Z,25.78
2018-04-22T16:10:15.594Z,25.79
2018-04-22T16:12:43.149Z,25.73
2018-04-22T16:15:10.698Z,25.44
2018-04-22T16:17:38.447Z,25.33
2018-04-22T16:20:06.265Z,25.22
2018-04-22T16:22:34.176Z,25.22
2018-04-22T16:25:01.728Z,25.09
2018-04-22T16:27:29.282Z,25.00
2018-04-22T16:29:56.888Z,24.88
2018-04-22T16:32:24.445Z,24.73
2018-04-22T16:34:52.220Z,24.61
2018-04-22T16:37:19.958Z,24.64
2018-04-22T16:39:47.673Z,24.41
2018-04-22T16:42:15.482Z,24.28
2018-04-22T16:44:43.035Z,24.11
2018-04-22T16:47:10.776Z,23.96
2018-04-22T16:49:38.354Z,23.95
2018-04-22T16:52:05.917Z,23.87
2018-04-22T16:54:33.482Z,23.80
2018-04-22T16:57:01.200Z,23.62
2018-04-22T16:59:28.771Z,23.53
2018-04-22T17:01:56.506Z,23.43
2018-04-22T17:04:24.067Z,23.33
2018-04-22T17:06:51.816Z,23.23
2018-04-22T17:09:19.381Z,23.25
2018-04-22T17:11:47.123Z,22.20
2018-04-22T17:14:14.703Z,21.82
2018-04-22T17:16:42.263Z,21.29
2018-04-22T17:19:10.371Z,20.59
2018-04-22T17:21:37.960Z,20.33
2018-04-22T17:24:05.550Z,18.80
2018-04-22T17:26:33.118Z,18.14
2018-04-22T17:29:00.676Z,17.76
2018-04-22T17:31:28.805Z,17.42
2018-04-22T17:33:56.355Z,17.25
2018-04-22T17:36:23.925Z,17.19
2018-04-22T17:38:51.636Z,17.33
2018-04-22T17:41:19.231Z,17.41
2018-04-22T17:43:46.802Z,17.69
2018-04-22T17:46:14.503Z,17.81
2018-04-22T17:48:42.062Z,17.93
2018-04-22T17:51:09.856Z,18.04
2018-04-22T17:53:37.521Z,18.19
2018-04-22T17:56:06.176Z,17.85
2018-04-22T17:58:33.771Z,18.04
2018-04-22T18:01:01.353Z,18.22
2018-04-22T18:03:28.949Z,17.66
2018-04-22T18:05:56.502Z,17.90
2018-04-22T18:08:24.192Z,18.06
2018-04-22T18:10:51.936Z,17.67
2018-04-22T18:13:19.755Z,17.80
2018-04-22T18:15:47.738Z,17.83
2018-04-22T18:18:15.295Z,17.64
2018-04-22T18:20:42.853Z,17.85
2018-04-22T18:23:10.558Z,17.81
2018-04-22T18:25:38.148Z,17.05
2018-04-22T18:28:05.716Z,17.11
2018-04-22T18:30:33.688Z,17.15
2018-04-22T18:33:01.579Z,17.15
2018-04-22T18:35:29.138Z,17.34
2018-04-22T18:37:56.923Z,17.41
2018-04-22T18:40:24.575Z,17.33
2018-04-22T18:42:52.138Z,17.43
2018-04-22T18:45:19.950Z,17.49
2018-04-22T18:47:47.729Z,17.47
2018-04-22T18:50:15.372Z,17.38
2018-04-22T18:52:43.058Z,17.48
2018-04-22T18:55:10.644Z,17.21
2018-04-22T18:57:38.430Z,17.19
2018-04-22T19:00:06.047Z,16.96
2018-04-22T19:02:33.780Z,16.86
2018-04-22T19:05:01.528Z,17.17
2018-04-22T19:07:29.335Z,16.99
2018-04-22T19:09:56.928Z,16.60
2018-04-22T19:12:24.687Z,16.59
2018-04-22T19:14:52.281Z,16.58
2018-04-22T19:17:20.027Z,16.63
2018-04-22T19:19:47.594Z,16.59
2018-04-22T19:22:15.151Z,16.53
2018-04-22T19:24:42.862Z,16.66
2018-04-22T19:27:10.638Z,16.53
2018-04-22T19:29:38.231Z,16.47
2018-04-22T19:32:05.957Z,16.33
2018-04-22T19:34:33.764Z,16.29
2018-04-22T19:37:01.328Z,16.18
2018-04-22T19:39:29.043Z,16.10
2018-04-22T19:41:56.756Z,16.16
2018-04-22T19:44:24.529Z,16.10
2018-04-22T19:46:52.122Z,16.08
2018-04-22T19:49:19.922Z,16.16
2018-04-22T19:51:47.508Z,16.09
2018-04-22T19:54:15.280Z,16.18
2018-04-22T19:56:42.884Z,16.20
2018-04-22T19:59:10.473Z,16.11
2018-04-22T20:01:38.040Z,16.07
2018-04-22T20:04:05.647Z,15.99
2018-04-22T20:06:33.200Z,15.93
2018-04-22T20:09:01.122Z,15.75
2018-04-22T20:11:28.708Z,15.67
2018-04-22T20:13:56.299Z,15.59
2018-04-22T20:16:23.938Z,15.44
2018-04-22T20:18:51.723Z,15.37
2018-04-22T20:21:19.317Z,15.25
2018-04-22T20:23:46.950Z,15.29
2018-04-22T20:26:14.540Z,15.17
2018-04-22T20:28:42.326Z,15.14
2018-04-22T20:31:09.894Z,15.12
2018-04-22T20:33:37.507Z,15.06
2018-04-22T20:36:05.474Z,15.09
2018-04-22T20:38:33.027Z,14.97
2018-04-22T20:41:00.610Z,15.01
2018-04-22T20:43:28.458Z,14.91
2018-04-22T20:45:56.162Z,14.87
2018-04-22T20:48:23.737Z,14.84
2018-04-22T20:50:51.341Z,14.88
2018-04-22T20:53:18.900Z,14.65
2018-04-22T20:55:46.467Z,14.76
2018-04-22T20:58:14.281Z,14.75
2018-04-22T21:00:41.834Z,14.54
2018-04-22T21:03:09.415Z,14.50
2018-04-22T21:05:37.152Z,14.62
2018-04-22T21:08:04.763Z,14.52
2018-04-22T21:10:32.352Z,14.56
2018-04-22T21:12:59.928Z,14.46
2018-04-22T21:15:27.754Z,14.32
2018-04-22T21:17:55.315Z,14.42
2018-04-22T21:20:23.419Z,14.38
2018-04-22T21:22:50.990Z,14.32
2018-04-22T21:25:18.539Z,14.60
2018-04-22T21:27:46.336Z,14.60
2018-04-22T21:30:13.904Z,14.65
2018-04-22T21:32:41.472Z,14.75
2018-04-22T21:35:09.056Z,14.75
2018-04-22T21:37:36.803Z,14.74
2018-04-22T21:40:04.612Z,14.71
2018-04-22T21:42:32.361Z,14.73
2018-04-22T21:45:00.273Z,14.70
2018-04-22T21:47:28.050Z,14.63
2018-04-22T21:49:55.616Z,14.55
2018-04-22T21:52:23.206Z,14.64
2018-04-22T21:54:50.946Z,14.58
2018-04-22T21:57:18.627Z,14.50
2018-04-22T21:59:46.324Z,14.48
2018-04-22T22:02:14.355Z,14.54
2018-04-22T22:04:42.138Z,14.52
2018-04-22T22:07:09.705Z,14.59
2018-04-22T22:09:37.290Z,14.54
2018-04-22T22:12:04.871Z,14.59
2018-04-22T22:14:32.426Z,14.57
2018-04-22T22:17:00.012Z,14.63
2018-04-22T22:19:27.564Z,14.65
2018-04-22T22:21:55.510Z,14.61
2018-04-22T22:24:23.068Z,14.58
2018-04-22T22:26:50.620Z,14.60
2018-04-22T22:29:18.204Z,14.64
2018-04-22T22:31:46.011Z,14.60
2018-04-22T22:34:13.626Z,14.56
2018-04-22T22:36:41.201Z,14.55
2018-04-22T22:39:08.754Z,14.57
2018-04-22T22:41:36.347Z,14.50
2018-04-22T22:44:03.908Z,14.51
2018-04-22T22:46:31.624Z,14.37
2018-04-22T22:48:59.431Z,14.30
2018-04-22T22:51:27.016Z,14.25
2018-04-22T22:53:54.590Z,14.27
2018-04-22T22:56:22.379Z,14.31
2018-04-22T22:58:49.935Z,14.23
2018-04-22T23:01:17.497Z,14.27
2018-04-22T23:03:45.087Z,14.17
2018-04-22T23:06:12.664Z,14.16
2018-04-22T23:08:40.260Z,14.15
2018-04-22T23:11:07.842Z,14.11
2018-04-22T23:13:35.464Z,13.99
2018-04-22T23:16:03.034Z,13.95
2018-04-22T23:18:30.615Z,13.82
2018-04-22T23:20:58.193Z,13.87
2018-04-22T23:23:25.968Z,13.93
2018-04-22T23:25:53.752Z,13.93
2018-04-22T23:28:21.368Z,13.89
2018-04-22T23:30:48.925Z,13.81
2018-04-22T23:33:16.477Z,13.91
2018-04-22T23:35:44.469Z,13.98
2018-04-22T23:38:12.019Z,13.97
2018-04-22T23:40:39.589Z,14.06
2018-04-22T23:43:07.194Z,14.08
2018-04-22T23:45:34.947Z,14.10
2018-04-22T23:48:02.521Z,14.01
2018-04-22T23:50:30.298Z,14.05
2018-04-22T23:52:57.859Z,14.02
2018-04-22T23:55:25.621Z,14.05
2018-04-22T23:57:53.430Z,14.09
